Airfield :
LOGIN :

Register | Disclaimer

   EN    FR    IT 

 










Legend :    VFR   Marginal VFR   IFR   Intensive IFR   Very Intensive IFR
Visi :
Ceiling :
>= 8 km
>= 3000ft
5 to 8 km
1000 to 3000 ft
1500m to 5 km
500 to 1000 ft
800 to 1500m
200 to 500 ft
< 800m
< 200 ft
Symbols :   Thunderstorms  Fog  Heavy snow  Heavy precipitations  Wind > 20 kt
SIGMETs :     Misc.  Thunderstorms  Icing  Turbulence  Mountain Waves  Volcanic Ashes






- Airport Elevation : 218 ft


EGYD - RAF Cranwell

CURRENT METAR :
  • 240950Z 22025KT 9000 -RA BKN011 OVC028 09/09 Q1002 RERA TEMPO 6000 RA RMK GRN TEMPO GRN

EXPIRED METARs :
  • 240920Z 20015KT 9000 RA FEW005 BKN008 OVC015 08/08 Q1003 TEMPO 4000 SCT004 RMK GRN TEMPO YLO2
  • 240850Z 18017KT 9999 7000E RA BKN004 OVC010 06/06 Q1003 BECMG BKN010 RMK YLO2 BECMG GRN
  • 240820Z 17012KT 7000 -RA FEW003 OVC004 05/05 Q1005 RERA BECMG BKN010 RMK YLO2 BECMG GRN
  • 240750Z 16015KT 6000 RA OVC003 04/04 Q1006 TEMPO 2000 BKN002 RMK YLO2 TEMPO AMB
  • 240720Z 16019KT 5000 RA OVC003 04/04 Q1007 TEMPO 2000 BKN002 RMK YLO2 TEMPO AMB

TAF TAF EGYD
Valid from the 24 at 09:00 until the 24 at 18:00 UTC


240746Z 2409/2418 20025G35KT 6000 -RA BKN010
TEMPO 2409/2410 2000 RA BKN004
BECMG 2411/2414 24030G42KT 9999 NSW FEW018
TEMPO 2414/2417 SCT020



MET'MAP, your aeronautical weather chart ! - Copyright ORBIFLY December 2007 - Disclaimer

ORBIFLY MET'MAP TEAM :

Programming & Development : Alexandra Zaïnal
Concept & original design : Baudouin d'Aumeries
Assistance for programming : Marc-Olivier Méhu
Technical & hardware support : Manuel Goepfert

Contact : metmap@orbifly.com




SOURCES & CREDITS :

   NOAA